Time;durP1;ratioP1;P1;durP2;ratioP2;P2;SDS_P1;SDS_P2;PMS_P1;PMS_P2;Temp;Humidity;BMP_temperature;BMP_pressure;BME280_temperature;BME280_humidity;BME280_pressure;Samples;Min_cycle;Max_cycle;Signal;HPM_P1;HPM_P2
2021/01/31 00:02:40;;;;;;;7.37;6.60;;;;;;;4.11;61.15;96384.63;8322641;28;20200;-78
2021/01/31 00:06:42;;;;;;;7.93;6.37;;;;;;;4.38;60.32;96401.38;8337944;28;20240;-78
2021/01/31 00:10:44;;;;;;;6.37;5.77;;;;;;;4.33;60.54;96395.66;8338037;28;20660;-78
2021/01/31 00:14:48;;;;;;;6.30;5.70;;;;;;;4.32;60.23;96399.94;8337337;28;20212;-78
2021/01/31 00:18:50;;;;;;;6.67;6.07;;;;;;;4.09;61.36;96393.25;8334075;28;20205;-78
2021/01/31 00:22:53;;;;;;;5.93;5.33;;;;;;;4.33;60.62;96393.91;8335026;28;20668;-78
2021/01/31 00:26:55;;;;;;;6.83;6.20;;;;;;;4.34;60.55;96387.91;8335132;28;20259;-78
2021/01/31 00:30:57;;;;;;;6.47;5.87;;;;;;;4.23;60.88;96379.88;8271852;28;20585;-78
2021/01/31 00:34:59;;;;;;;5.90;5.40;;;;;;;4.31;60.63;96380.34;8268890;28;20209;-78
2021/01/31 00:39:02;;;;;;;7.33;6.63;;;;;;;3.91;60.83;96380.34;8267742;28;20202;-78
2021/01/31 00:43:08;;;;;;;6.70;6.10;;;;;;;4.17;60.49;96374.97;8283847;28;20209;-78
2021/01/31 00:47:09;;;;;;;6.83;6.23;;;;;;;3.86;60.88;96378.88;8300092;28;20213;-78
2021/01/31 00:51:11;;;;;;;6.47;5.87;;;;;;;3.50;61.41;96382.09;8301180;28;20205;-78
2021/01/31 00:55:14;;;;;;;6.50;5.90;;;;;;;3.86;60.92;96384.84;8301111;28;20676;-79
2021/01/31 00:59:16;;;;;;;7.80;6.03;;;;;;;3.95;61.30;96391.31;8301389;28;20204;-79
2021/01/31 01:03:17;;;;;;;7.03;6.33;;;;;;;3.90;61.25;96393.22;8300735;28;20235;-79
2021/01/31 01:07:20;;;;;;;6.83;6.23;;;;;;;4.01;61.35;96406.41;8300816;28;20264;-78
2021/01/31 01:11:23;;;;;;;7.03;6.33;;;;;;;4.08;60.74;96409.53;8300979;28;20245;-78
2021/01/31 01:15:26;;;;;;;6.33;5.73;;;;;;;4.25;60.71;96413.94;8301291;28;20559;-78
2021/01/31 01:19:28;;;;;;;6.10;5.43;;;;;;;3.84;60.85;96424.22;8300145;28;20212;-78
2021/01/31 01:23:30;;;;;;;5.97;5.40;;;;;;;3.94;61.00;96410.16;8300332;28;20201;-78
2021/01/31 01:27:32;;;;;;;6.20;5.60;;;;;;;4.07;60.27;96416.41;8299655;28;20689;-78
2021/01/31 01:31:34;;;;;;;6.60;5.93;;;;;;;4.02;60.65;96404.69;8298955;28;20300;-78
2021/01/31 01:35:36;;;;;;;6.60;5.90;;;;;;;4.06;60.79;96404.47;8299977;28;20212;-78
2021/01/31 01:39:38;;;;;;;6.80;5.87;;;;;;;4.15;60.58;96392.16;8304020;28;20198;-78
2021/01/31 01:43:41;;;;;;;6.80;6.10;;;;;;;3.99;59.76;96392.81;8312433;28;20204;-78
2021/01/31 01:47:43;;;;;;;6.60;6.00;;;;;;;4.03;60.12;96388.41;8304123;28;20228;-78
2021/01/31 01:51:48;;;;;;;6.90;6.20;;;;;;;3.65;60.97;96396.00;8306550;28;20221;-78
2021/01/31 01:55:55;;;;;;;6.93;6.33;;;;;;;4.13;60.27;96402.47;8273994;28;20209;-78
2021/01/31 01:59:58;;;;;;;6.70;6.00;;;;;;;3.97;59.73;96398.94;8273490;28;20194;-78
2021/01/31 02:04:00;;;;;;;8.00;6.53;;;;;;;3.89;59.78;96389.84;8273647;28;20206;-78
2021/01/31 02:08:03;;;;;;;7.83;6.70;;;;;;;3.95;59.79;96404.09;8289730;28;20237;-78
2021/01/31 02:12:06;;;;;;;7.30;6.60;;;;;;;4.14;59.33;96404.16;8306623;28;20212;-78
2021/01/31 02:16:14;;;;;;;7.23;6.53;;;;;;;4.10;59.32;96397.50;8305467;28;20665;-78
2021/01/31 02:20:45;;;;;;;8.53;7.10;;;;;;;4.07;58.86;96401.03;8306023;28;20239;-78
2021/01/31 02:25:11;;;;;;;7.17;6.57;;;;;;;4.01;58.64;96400.44;8273185;28;20566;-78
2021/01/31 02:29:29;;;;;;;7.77;7.07;;;;;;;4.03;59.41;96407.16;8233352;28;20217;-78
2021/01/31 02:33:42;;;;;;;8.27;7.53;;;;;;;4.54;57.32;96401.56;8272442;28;20782;-78
2021/01/31 02:37:51;;;;;;;8.20;7.40;;;;;;;4.10;58.55;96412.88;8292693;28;20636;-78
2021/01/31 02:42:02;;;;;;;8.40;7.60;;;;;;;4.15;58.19;96410.09;8304048;28;20193;-78
2021/01/31 02:46:09;;;;;;;8.10;7.30;;;;;;;4.15;58.27;96416.06;8303301;28;20213;-78
2021/01/31 02:50:15;;;;;;;7.80;7.00;;;;;;;4.25;58.48;96425.00;8303930;28;20622;-78
2021/01/31 02:54:23;;;;;;;8.10;7.30;;;;;;;4.07;58.71;96426.66;8306014;28;20617;-77
2021/01/31 02:58:27;;;;;;;7.77;6.97;;;;;;;3.88;58.47;96431.72;8303097;28;20648;-78
2021/01/31 03:02:34;;;;;;;7.60;6.90;;;;;;;4.05;59.24;96428.41;8303345;28;20204;-78
2021/01/31 03:06:46;;;;;;;7.57;6.93;;;;;;;4.00;59.02;96435.50;8303282;28;20240;-78
2021/01/31 03:10:53;;;;;;;8.00;7.30;;;;;;;4.17;58.28;96424.53;8302788;28;20201;-78
2021/01/31 03:14:57;;;;;;;8.70;7.90;;;;;;;4.13;58.78;96432.38;8302604;28;20255;-78
2021/01/31 03:19:03;;;;;;;8.27;7.47;;;;;;;4.16;58.67;96425.41;8304803;28;20300;-78
2021/01/31 03:23:12;;;;;;;8.97;8.10;;;;;;;4.05;57.82;96420.72;8303188;28;20224;-78
2021/01/31 03:27:17;;;;;;;9.30;8.30;;;;;;;4.08;58.02;96427.47;8303966;28;20221;-79
2021/01/31 03:31:21;;;;;;;9.60;8.70;;;;;;;4.04;57.62;96433.63;8303794;28;20649;-78
2021/01/31 03:35:26;;;;;;;8.70;7.90;;;;;;;4.10;57.82;96434.19;8303841;28;20211;-78
2021/01/31 03:39:29;;;;;;;8.97;8.03;;;;;;;4.14;57.93;96436.63;8303181;28;20220;-78
2021/01/31 03:43:31;;;;;;;9.90;8.87;;;;;;;4.22;57.88;96432.00;8302112;28;20213;-78
2021/01/31 03:47:38;;;;;;;9.33;8.43;;;;;;;4.20;58.31;96439.75;8302863;28;20232;-79
2021/01/31 03:51:40;;;;;;;9.23;8.33;;;;;;;4.19;58.32;96455.19;8304064;28;20185;-79
2021/01/31 03:55:43;;;;;;;9.33;8.43;;;;;;;4.08;57.99;96460.78;8304221;28;20665;-79
2021/01/31 03:59:49;;;;;;;9.50;8.60;;;;;;;3.99;58.13;96464.56;8308400;28;20554;-79
2021/01/31 04:03:55;;;;;;;8.97;8.07;;;;;;;4.01;58.85;96469.63;8303127;28;20549;-78
2021/01/31 04:07:57;;;;;;;9.20;8.30;;;;;;;4.03;58.78;96466.09;8308157;28;20255;-79
2021/01/31 04:12:04;;;;;;;9.13;8.03;;;;;;;4.06;57.86;96471.09;8309596;28;20204;-79
2021/01/31 04:16:07;;;;;;;9.70;8.70;;;;;;;3.99;57.65;96468.84;8312910;28;20209;-79
2021/01/31 04:20:10;;;;;;;9.93;8.93;;;;;;;3.77;58.29;96472.31;8312846;28;20201;-79
2021/01/31 04:24:14;;;;;;;10.63;9.20;;;;;;;3.73;58.21;96478.44;8314209;28;20576;-79
2021/01/31 04:28:20;;;;;;;11.53;9.87;;;;;;;3.79;57.75;96480.75;8303666;28;20235;-78
2021/01/31 04:32:22;;;;;;;11.53;9.33;;;;;;;4.02;58.27;96479.81;8314971;28;20203;-79
2021/01/31 04:36:28;;;;;;;9.70;8.77;;;;;;;4.11;58.69;96476.84;8311649;28;20666;-78
2021/01/31 04:40:30;;;;;;;10.03;9.13;;;;;;;4.06;58.02;96483.06;8305152;28;20201;-78
2021/01/31 04:44:34;;;;;;;9.90;9.00;;;;;;;4.13;58.16;96487.03;8280953;28;20202;-78
2021/01/31 04:48:41;;;;;;;10.27;9.20;;;;;;;4.13;58.70;96491.31;8276727;28;20570;-78
2021/01/31 04:52:58;;;;;;;10.67;9.67;;;;;;;4.05;57.64;96509.56;8274100;28;20193;-78
2021/01/31 04:57:04;;;;;;;10.67;9.57;;;;;;;3.83;57.80;96491.72;8277306;28;20622;-78
2021/01/31 05:01:11;;;;;;;11.30;10.20;;;;;;;3.42;59.31;96492.47;8271764;28;20249;-78
2021/01/31 05:05:19;;;;;;;10.60;9.50;;;;;;;3.71;58.60;96486.19;8269198;28;20673;-78
2021/01/31 05:09:24;;;;;;;10.93;9.80;;;;;;;3.20;59.16;96492.47;8277827;28;20241;-79
2021/01/31 05:13:33;;;;;;;10.13;9.13;;;;;;;3.29;58.58;96491.28;8280881;28;20271;-79
2021/01/31 05:17:37;;;;;;;10.97;9.97;;;;;;;2.79;59.07;96494.84;8283694;28;20560;-79
2021/01/31 05:21:38;;;;;;;10.60;9.60;;;;;;;3.08;60.08;96493.75;8283288;28;20201;-79
2021/01/31 05:25:40;;;;;;;11.63;10.10;;;;;;;2.77;59.12;96488.97;8279719;28;20247;-78
2021/01/31 05:29:42;;;;;;;10.97;9.87;;;;;;;2.86;59.86;96503.16;8277856;28;20309;-78
2021/01/31 05:33:51;;;;;;;11.37;10.20;;;;;;;2.89;59.93;96513.25;8276513;28;20206;-78
2021/01/31 05:37:52;;;;;;;13.47;12.07;;;;;;;2.74;59.08;96501.84;8295476;28;20692;-78
2021/01/31 05:41:54;;;;;;;12.50;11.30;;;;;;;2.65;59.81;96515.81;8309479;28;20695;-79
2021/01/31 05:45:56;;;;;;;13.27;12.07;;;;;;;2.79;60.02;96515.31;8308162;28;20228;-78
2021/01/31 05:49:59;;;;;;;13.00;11.70;;;;;;;2.89;59.71;96518.34;8308764;28;20208;-78
2021/01/31 05:54:18;;;;;;;13.23;11.90;;;;;;;3.12;59.91;96535.41;8307914;28;20201;-79
2021/01/31 05:58:23;;;;;;;12.40;11.20;;;;;;;3.04;59.53;96519.53;8307277;28;20284;-78
2021/01/31 06:02:28;;;;;;;13.00;11.53;;;;;;;2.92;60.12;96528.50;8307849;28;20196;-78
2021/01/31 06:06:31;;;;;;;12.90;11.57;;;;;;;3.05;59.78;96534.81;8307567;28;20291;-78
2021/01/31 06:10:34;;;;;;;12.83;11.53;;;;;;;2.86;59.23;96536.38;8304803;28;20192;-77
2021/01/31 06:14:38;;;;;;;13.73;12.33;;;;;;;3.10;58.89;96549.97;8305095;28;20216;-78
2021/01/31 06:18:41;;;;;;;18.50;16.50;;;;;;;2.83;59.89;96556.94;8305238;28;20201;-78
2021/01/31 06:22:48;;;;;;;13.17;11.40;;;;;;;2.76;59.33;96563.16;8304802;28;20201;-77
2021/01/31 06:26:50;;;;;;;13.50;12.10;;;;;;;3.11;59.16;96552.50;8306821;28;20213;-78
2021/01/31 06:31:04;;;;;;;13.33;12.03;;;;;;;2.94;60.11;96563.34;8307240;28;20205;-78
2021/01/31 06:35:09;;;;;;;12.63;11.43;;;;;;;2.87;59.39;96581.50;8311908;28;20240;-79
2021/01/31 06:39:32;;;;;;;13.57;12.17;;;;;;;2.64;60.05;96574.66;8314774;28;20588;-79
2021/01/31 06:43:44;;;;;;;13.30;12.00;;;;;;;2.77;60.06;96569.97;8315132;28;20208;-79
2021/01/31 06:48:08;;;;;;;13.37;11.53;;;;;;;2.59;60.15;96573.97;8314845;28;20233;-79
2021/01/31 06:52:20;;;;;;;13.23;11.93;;;;;;;2.80;59.51;96578.34;8288250;28;20209;-79
2021/01/31 06:56:43;;;;;;;13.93;12.53;;;;;;;2.66;59.70;96576.25;8320462;28;20213;-79
2021/01/31 07:01:15;;;;;;;14.80;13.30;;;;;;;2.57;60.21;96588.53;8321113;28;20255;-80
2021/01/31 07:05:27;;;;;;;14.37;12.90;;;;;;;2.44;60.60;96601.75;8334538;28;20327;-80
2021/01/31 07:09:39;;;;;;;12.83;11.53;;;;;;;2.49;60.24;96592.19;8319188;28;20233;-80
2021/01/31 07:13:58;;;;;;;13.87;12.57;;;;;;;2.69;60.45;96606.00;8317712;28;20209;-79
2021/01/31 07:18:03;;;;;;;13.43;12.13;;;;;;;2.49;60.77;96607.50;8313519;28;20197;-79
2021/01/31 07:22:08;;;;;;;13.50;12.13;;;;;;;2.50;59.93;96611.75;8315068;28;20194;-79
2021/01/31 07:26:27;;;;;;;14.17;12.77;;;;;;;2.27;60.92;96602.31;8316777;28;20236;-79
2021/01/31 07:30:35;;;;;;;13.77;12.37;;;;;;;2.31;61.24;96611.53;8318776;28;20205;-79
2021/01/31 07:34:39;;;;;;;14.57;13.17;;;;;;;2.29;61.08;96620.13;8320641;28;20232;-80
2021/01/31 07:38:46;;;;;;;14.77;13.00;;;;;;;2.40;60.95;96623.19;8321887;28;20213;-78
2021/01/31 07:42:54;;;;;;;13.60;12.17;;;;;;;2.46;61.07;96617.84;8323152;28;20208;-80
2021/01/31 07:46:57;;;;;;;14.03;12.63;;;;;;;2.26;61.24;96623.59;8305081;28;20232;-78
2021/01/31 07:51:00;;;;;;;13.47;12.17;;;;;;;2.01;62.19;96622.75;8322787;28;20604;-79
2021/01/31 07:55:10;;;;;;;18.47;16.47;;;;;;;2.27;60.80;96627.84;8322512;28;20197;-79
2021/01/31 07:59:24;;;;;;;14.50;12.77;;;;;;;2.27;60.81;96627.03;8321566;28;20216;-78
2021/01/31 08:03:33;;;;;;;13.70;12.30;;;;;;;2.78;59.96;96633.81;8319242;28;20200;-78
2021/01/31 08:08:04;;;;;;;14.37;12.93;;;;;;;3.01;58.89;96638.13;8320089;28;20245;-78
2021/01/31 08:12:07;;;;;;;14.23;12.43;;;;;;;2.66;59.21;96642.72;8315324;28;20604;-78
2021/01/31 08:16:41;;;;;;;14.40;12.90;;;;;;;2.73;59.00;96651.84;8306232;28;20213;-79
2021/01/31 08:20:53;;;;;;;14.27;12.87;;;;;;;2.70;59.20;96644.31;8313537;28;20209;-79
2021/01/31 08:25:00;;;;;;;14.17;12.67;;;;;;;2.73;59.47;96644.19;8321796;28;20201;-79
2021/01/31 08:29:02;;;;;;;14.50;13.00;;;;;;;2.41;60.28;96619.72;8319978;28;20216;-78
2021/01/31 08:33:29;;;;;;;14.73;13.13;;;;;;;2.35;59.98;96636.09;8308624;28;20209;-78
2021/01/31 08:37:32;;;;;;;15.13;13.57;;;;;;;2.35;60.44;96643.75;8308936;28;20193;-80
2021/01/31 08:41:40;;;;;;;14.17;12.77;;;;;;;2.46;60.70;96640.84;8324083;28;20208;-79
2021/01/31 08:45:44;;;;;;;14.77;13.20;;;;;;;2.42;60.65;96636.72;8323246;28;20292;-79
2021/01/31 08:49:55;;;;;;;14.97;13.47;;;;;;;2.35;60.23;96637.81;8323463;28;20197;-79
2021/01/31 08:54:05;;;;;;;14.17;12.67;;;;;;;2.69;60.01;96652.84;8326461;28;20220;-79
2021/01/31 08:58:13;;;;;;;13.20;11.90;;;;;;;2.89;59.64;96646.22;8327050;28;20212;-79
2021/01/31 09:02:21;;;;;;;14.93;13.33;;;;;;;2.58;60.47;96649.00;8326885;28;20193;-80
2021/01/31 09:06:23;;;;;;;16.27;14.63;;;;;;;2.56;60.64;96648.22;8326527;28;20253;-79
2021/01/31 09:10:46;;;;;;;15.97;14.27;;;;;;;2.28;61.15;96659.31;8308016;28;20292;-78
2021/01/31 09:14:50;;;;;;;15.60;13.63;;;;;;;2.80;60.39;96657.63;8292030;28;20236;-78
2021/01/31 09:19:12;;;;;;;15.50;13.90;;;;;;;2.90;59.69;96651.28;8302157;28;20497;-78
2021/01/31 09:23:19;;;;;;;20.30;18.10;;;;;;;3.41;59.34;96644.38;8313715;28;20207;-78
2021/01/31 09:27:25;;;;;;;16.00;14.40;;;;;;;3.79;57.96;96643.78;8306935;28;20216;-78
2021/01/31 09:31:29;;;;;;;16.27;14.47;;;;;;;3.30;58.37;96647.31;8304378;28;20189;-77
2021/01/31 09:35:32;;;;;;;16.10;14.40;;;;;;;3.18;58.40;96649.47;8303677;28;20565;-78
2021/01/31 09:39:35;;;;;;;15.17;13.77;;;;;;;3.39;58.52;96646.16;8302564;28;20198;-78
2021/01/31 09:43:39;;;;;;;15.80;13.90;;;;;;;3.76;57.34;96639.63;8303861;28;20197;-78
2021/01/31 09:47:41;;;;;;;15.03;13.53;;;;;;;3.85;58.11;96641.03;8300434;28;20224;-78
2021/01/31 09:51:43;;;;;;;16.73;14.17;;;;;;;3.65;57.95;96641.78;8298113;28;20205;-78
2021/01/31 09:55:45;;;;;;;16.13;14.47;;;;;;;3.43;58.09;96627.22;8300770;28;20201;-78
2021/01/31 09:59:49;;;;;;;16.43;14.77;;;;;;;3.62;58.24;96637.59;8312210;28;20205;-78
2021/01/31 10:03:55;;;;;;;16.63;14.93;;;;;;;3.52;57.73;96637.13;8308761;28;20267;-78
2021/01/31 10:08:03;;;;;;;15.43;13.87;;;;;;;3.45;58.03;96629.72;8309277;28;20263;-77
2021/01/31 10:12:25;;;;;;;17.00;15.20;;;;;;;4.02;58.51;96617.31;8311264;28;20556;-77
2021/01/31 10:16:30;;;;;;;16.30;14.60;;;;;;;3.78;58.32;96619.09;8308614;28;20201;-78
2021/01/31 10:20:35;;;;;;;18.37;15.47;;;;;;;3.56;58.63;96619.06;8310754;28;20213;-79
2021/01/31 10:24:38;;;;;;;17.33;15.50;;;;;;;3.43;57.80;96621.28;8314652;28;20197;-78
2021/01/31 10:28:45;;;;;;;18.00;16.10;;;;;;;3.27;59.75;96621.00;8323846;28;20233;-80
2021/01/31 10:32:48;;;;;;;17.37;15.57;;;;;;;3.16;58.97;96625.66;8324719;28;20201;-80
2021/01/31 10:36:49;;;;;;;17.67;15.77;;;;;;;3.37;59.84;96621.47;8324952;28;20600;-80
2021/01/31 10:40:51;;;;;;;17.33;15.53;;;;;;;3.36;59.07;96625.78;8327204;28;20198;-79
2021/01/31 10:45:01;;;;;;;17.30;15.50;;;;;;;3.62;58.26;96632.50;8329087;28;20216;-81
2021/01/31 10:49:04;;;;;;;17.67;15.87;;;;;;;3.86;58.16;96619.63;8319613;28;20236;-79
2021/01/31 10:53:06;;;;;;;16.97;15.17;;;;;;;3.90;58.37;96633.97;8310345;28;20208;-79
2021/01/31 10:57:07;;;;;;;17.63;15.83;;;;;;;3.99;57.82;96635.34;8311107;28;20285;-79
2021/01/31 11:01:12;;;;;;;16.90;15.20;;;;;;;4.20;57.16;96631.09;8312393;28;20209;-78
2021/01/31 11:05:15;;;;;;;18.80;16.90;;;;;;;3.90;58.03;96622.03;8309948;28;20232;-79
2021/01/31 11:09:19;;;;;;;17.90;15.53;;;;;;;3.86;58.18;96617.06;8317655;28;20240;-79
2021/01/31 11:13:21;;;;;;;17.37;15.67;;;;;;;4.52;57.21;96624.66;8317864;28;20202;-79
2021/01/31 11:17:22;;;;;;;17.27;15.57;;;;;;;4.87;56.21;96612.94;8322289;28;20300;-79
2021/01/31 11:21:27;;;;;;;17.17;15.37;;;;;;;5.16;55.10;96615.94;8324554;28;20198;-78
2021/01/31 11:25:28;;;;;;;16.77;15.00;;;;;;;4.94;56.18;96621.19;8305050;28;20202;-78
2021/01/31 11:29:31;;;;;;;18.03;16.23;;;;;;;4.79;55.93;96614.97;8298588;28;20232;-79
2021/01/31 11:33:33;;;;;;;18.00;16.07;;;;;;;4.00;58.26;96624.19;8320406;28;20212;-80
2021/01/31 11:37:35;;;;;;;17.80;15.90;;;;;;;4.08;58.19;96623.00;8302750;28;20637;-78
2021/01/31 11:41:38;;;;;;;16.93;15.10;;;;;;;4.79;56.79;96607.28;8279727;28;20231;-78
2021/01/31 11:45:40;;;;;;;17.63;15.83;;;;;;;4.46;58.05;96599.28;8303719;28;20228;-78
2021/01/31 11:49:41;;;;;;;17.00;15.30;;;;;;;4.39;58.32;96596.13;8303411;28;20197;-78
2021/01/31 11:53:44;;;;;;;16.90;15.20;;;;;;;4.66;57.68;96583.91;8302619;28;20251;-78
2021/01/31 11:57:46;;;;;;;18.23;16.33;;;;;;;4.40;58.36;96579.00;8309802;28;20211;-79
2021/01/31 12:01:47;;;;;;;16.93;15.23;;;;;;;4.49;58.21;96581.19;8313205;28;20568;-78
2021/01/31 12:05:49;;;;;;;20.10;15.87;;;;;;;5.27;60.78;96582.09;8320727;28;20229;-81
2021/01/31 12:09:52;;;;;;;17.80;15.17;;;;;;;4.89;57.03;96582.06;8327477;28;20236;-81
2021/01/31 12:13:54;;;;;;;16.77;15.03;;;;;;;5.06;56.58;96576.19;8307405;28;20209;-81
2021/01/31 12:17:56;;;;;;;18.70;16.77;;;;;;;5.35;56.12;96567.19;8312219;28;20213;-78
2021/01/31 12:21:58;;;;;;;17.10;15.30;;;;;;;5.23;56.70;96563.41;8304428;28;20197;-78
2021/01/31 12:26:00;;;;;;;23.57;20.87;;;;;;;4.93;57.82;96562.22;8301040;28;20684;-77
2021/01/31 12:30:03;;;;;;;17.60;15.70;;;;;;;4.87;57.30;96564.19;8300081;28;20225;-74
2021/01/31 12:34:06;;;;;;;17.90;16.00;;;;;;;4.71;57.36;96565.75;8303661;28;20243;-75
2021/01/31 12:38:08;;;;;;;17.23;15.47;;;;;;;5.08;57.60;96551.28;8304097;28;20207;-75
2021/01/31 12:42:11;;;;;;;17.23;15.50;;;;;;;5.10;57.09;96549.47;8301827;28;20201;-78
2021/01/31 12:46:13;;;;;;;18.23;16.43;;;;;;;5.35;56.95;96538.09;8302271;28;20283;-78
2021/01/31 12:50:16;;;;;;;17.33;15.53;;;;;;;4.61;58.27;96533.72;8301308;28;20228;-78
2021/01/31 12:54:20;;;;;;;19.60;17.50;;;;;;;5.04;57.48;96532.63;8300116;28;20216;-78
2021/01/31 12:58:23;;;;;;;16.73;14.93;;;;;;;5.27;56.40;96533.31;8303307;28;20201;-79
2021/01/31 13:02:27;;;;;;;16.33;14.63;;;;;;;4.33;57.63;96528.94;8302285;28;20262;-78
2021/01/31 13:06:29;;;;;;;16.67;14.97;;;;;;;4.47;58.33;96521.47;8302206;28;20923;-77
2021/01/31 13:10:32;;;;;;;16.93;15.23;;;;;;;4.38;58.25;96524.41;8299922;28;20197;-78
2021/01/31 13:14:37;;;;;;;22.03;18.77;;;;;;;4.86;57.06;96505.25;8294586;28;20208;-77
2021/01/31 13:18:38;;;;;;;21.23;18.50;;;;;;;4.48;58.33;96502.63;8300302;28;20201;-78
2021/01/31 13:22:40;;;;;;;17.17;15.33;;;;;;;4.02;59.18;96510.53;8301829;28;20201;-77
2021/01/31 13:26:42;;;;;;;22.00;19.70;;;;;;;4.47;58.40;96506.94;8301721;28;20232;-77
2021/01/31 13:30:45;;;;;;;36.40;28.60;;;;;;;4.46;57.94;96512.97;8301171;28;20197;-77
2021/01/31 13:34:48;;;;;;;16.80;15.10;;;;;;;4.38;58.53;96515.03;8306434;28;20668;-78
2021/01/31 13:38:50;;;;;;;18.53;16.60;;;;;;;5.44;58.60;96522.28;8310077;28;20225;-77
2021/01/31 13:42:52;;;;;;;32.37;29.07;;;;;;;4.94;57.00;96513.44;8282516;28;20205;-77
2021/01/31 13:46:55;;;;;;;17.73;15.93;;;;;;;4.78;58.06;96515.00;8275559;28;20603;-77
2021/01/31 13:50:57;;;;;;;16.30;14.43;;;;;;;4.43;58.33;96513.06;8275568;28;20209;-77
2021/01/31 13:54:58;;;;;;;18.60;16.07;;;;;;;4.40;59.13;96512.38;8274429;28;20217;-77
2021/01/31 13:59:00;;;;;;;16.23;14.40;;;;;;;4.39;58.95;96501.28;8274333;28;20210;-77
2021/01/31 14:03:03;;;;;;;16.23;14.60;;;;;;;4.47;58.57;96500.97;8274510;28;20566;-77
2021/01/31 14:07:05;;;;;;;17.27;15.47;;;;;;;4.42;59.44;96500.34;8273778;28;20697;-77
2021/01/31 14:11:07;;;;;;;17.53;15.73;;;;;;;4.49;59.10;96497.44;8274732;28;20284;-77
2021/01/31 14:15:10;;;;;;;17.63;15.70;;;;;;;4.34;59.48;96497.25;8274204;28;20650;-77
2021/01/31 14:19:14;;;;;;;28.43;25.33;;;;;;;4.52;58.56;96495.66;8274486;28;20209;-77
2021/01/31 14:23:15;;;;;;;19.47;17.40;;;;;;;4.37;59.16;96504.84;8273986;28;20205;-77
2021/01/31 14:27:17;;;;;;;16.67;15.00;;;;;;;4.80;58.16;96495.28;8274997;28;20662;-77
2021/01/31 14:31:21;;;;;;;19.47;16.97;;;;;;;4.35;58.75;96494.63;8273682;28;20206;-77
2021/01/31 14:35:41;;;;;;;34.57;30.17;;;;;;;4.26;59.37;96484.78;8272838;28;20288;-77
2021/01/31 14:39:43;;;;;;;20.90;18.80;;;;;;;4.34;59.73;96479.31;8272924;28;20206;-77
2021/01/31 14:43:45;;;;;;;16.53;14.83;;;;;;;4.05;59.93;96478.84;8272061;28;20600;-77
2021/01/31 14:47:47;;;;;;;17.10;15.30;;;;;;;3.97;60.14;96474.03;8271079;28;20563;-77
2021/01/31 14:51:50;;;;;;;16.87;15.07;;;;;;;4.05;60.12;96471.16;8271783;28;20205;-77
2021/01/31 14:55:52;;;;;;;20.77;16.23;;;;;;;4.01;60.04;96478.13;8273079;28;20763;-77
2021/01/31 14:59:53;;;;;;;17.10;15.37;;;;;;;3.84;60.76;96471.13;8272870;28;20225;-78
2021/01/31 15:03:55;;;;;;;17.97;15.93;;;;;;;4.05;60.91;96456.59;8274958;28;20205;-77
2021/01/31 15:07:58;;;;;;;19.23;15.33;;;;;;;3.99;61.22;96449.19;8289746;28;20240;-78
2021/01/31 15:12:00;;;;;;;18.77;16.77;;;;;;;4.03;60.90;96444.75;8305202;28;20216;-77
2021/01/31 15:16:04;;;;;;;16.37;14.27;;;;;;;4.36;60.83;96439.94;8304098;28;20288;-77
2021/01/31 15:20:08;;;;;;;16.33;14.63;;;;;;;4.31;60.78;96424.72;8304793;28;20205;-77
2021/01/31 15:24:10;;;;;;;17.30;15.50;;;;;;;4.38;60.43;96425.31;8304536;28;20236;-77
2021/01/31 15:28:12;;;;;;;16.80;15.10;;;;;;;4.20;60.69;96421.81;8304626;28;20232;-77
2021/01/31 15:32:14;;;;;;;17.07;15.37;;;;;;;4.24;60.35;96414.81;8307079;28;20236;-77
2021/01/31 15:36:15;;;;;;;17.93;16.00;;;;;;;4.33;60.65;96417.00;8306444;28;20209;-77
2021/01/31 15:40:20;;;;;;;22.07;19.70;;;;;;;4.08;61.11;96412.09;8303677;28;20583;-77
2021/01/31 15:44:23;;;;;;;18.23;15.20;;;;;;;3.89;60.72;96405.19;8303797;28;20216;-77
2021/01/31 15:48:26;;;;;;;18.07;16.17;;;;;;;3.63;62.07;96400.34;8322762;28;20225;-77
2021/01/31 15:52:28;;;;;;;17.60;14.90;;;;;;;3.58;61.55;96392.00;8305279;28;20208;-77
2021/01/31 15:56:33;;;;;;;18.87;15.27;;;;;;;5.14;63.24;96398.75;8317154;28;20268;-80
2021/01/31 16:00:38;;;;;;;17.00;15.20;;;;;;;4.93;58.60;96395.47;8323708;28;20594;-80
2021/01/31 16:04:39;;;;;;;15.17;13.67;;;;;;;4.83;60.68;96388.22;8324808;28;20228;-80
2021/01/31 16:08:43;;;;;;;16.30;14.70;;;;;;;4.24;59.28;96396.88;8304038;28;20237;-78
2021/01/31 16:12:46;;;;;;;16.10;13.97;;;;;;;3.96;60.05;96403.22;8301495;28;20208;-77
2021/01/31 16:16:48;;;;;;;17.03;15.23;;;;;;;3.81;60.21;96403.84;8299113;28;20700;-78
2021/01/31 16:20:50;;;;;;;17.30;14.70;;;;;;;3.64;60.91;96402.03;8278257;28;20227;-78
2021/01/31 16:24:52;;;;;;;16.73;15.03;;;;;;;3.31;61.62;96398.22;8299432;28;20224;-77
2021/01/31 16:28:55;;;;;;;18.27;14.80;;;;;;;3.43;61.71;96403.75;8296698;28;20220;-78
2021/01/31 16:32:57;;;;;;;17.50;15.40;;;;;;;3.33;61.90;96414.34;8309712;28;20331;-78
2021/01/31 16:36:59;;;;;;;16.97;14.73;;;;;;;3.19;61.89;96421.72;8317913;28;20211;-77
2021/01/31 16:41:01;;;;;;;18.43;16.43;;;;;;;3.08;62.89;96417.03;8307498;28;20205;-78
2021/01/31 16:45:05;;;;;;;17.63;15.70;;;;;;;3.18;62.30;96406.44;8311495;28;20205;-78
2021/01/31 16:49:07;;;;;;;27.73;23.50;;;;;;;3.09;62.38;96413.59;8304465;28;20218;-78
2021/01/31 16:53:09;;;;;;;63.63;42.40;;;;;;;3.07;62.42;96417.94;8307920;28;20204;-76
2021/01/31 16:57:11;;;;;;;19.53;17.30;;;;;;;3.11;62.26;96416.91;8317650;28;20204;-76
2021/01/31 17:01:14;;;;;;;18.13;15.83;;;;;;;3.05;62.12;96406.09;8317530;28;20288;-77
2021/01/31 17:05:16;;;;;;;19.10;17.00;;;;;;;3.04;62.71;96405.25;8321573;28;20637;-77
2021/01/31 17:09:18;;;;;;;18.77;16.63;;;;;;;2.89;63.04;96386.25;8314559;28;20241;-77
2021/01/31 17:13:34;;;;;;;18.50;16.40;;;;;;;2.74;63.34;96392.78;8302742;28;20208;-77
2021/01/31 17:17:37;;;;;;;17.53;15.63;;;;;;;2.91;63.25;96391.28;8309141;28;20227;-77
2021/01/31 17:21:38;;;;;;;18.10;16.20;;;;;;;3.09;62.57;96390.56;8323623;28;20219;-77
2021/01/31 17:25:40;;;;;;;18.60;16.60;;;;;;;2.94;62.89;96391.16;8313792;28;20205;-78
2021/01/31 17:29:44;;;;;;;21.50;18.57;;;;;;;3.07;62.60;96383.84;8309423;28;20236;-78
2021/01/31 17:33:48;;;;;;;22.73;20.33;;;;;;;3.04;61.89;96372.00;8318258;28;20219;-78
2021/01/31 17:37:50;;;;;;;23.90;20.47;;;;;;;2.75;62.79;96365.47;8303974;28;20209;-77
2021/01/31 17:41:51;;;;;;;20.93;18.73;;;;;;;2.56;63.40;96374.75;8304960;28;20258;-77
2021/01/31 17:45:53;;;;;;;22.50;19.23;;;;;;;2.46;63.57;96364.06;8305367;28;20251;-77
2021/01/31 17:49:56;;;;;;;21.63;19.10;;;;;;;2.50;63.95;96360.47;8300543;28;20699;-77
2021/01/31 17:53:57;;;;;;;28.37;15.87;;;;;;;3.51;81.37;96355.63;8306113;28;20225;-77
2021/01/31 17:57:59;;;;;;;21.40;18.50;;;;;;;3.08;68.03;96357.38;8313063;28;20227;-77
2021/01/31 18:02:01;;;;;;;20.88;18.67;;;;;;;3.11;62.66;96342.72;8300095;28;20437;-78
2021/01/31 18:06:04;;;;;;;19.30;17.20;;;;;;;2.82;63.34;96354.13;8303891;28;20595;-78
2021/01/31 18:10:07;;;;;;;19.13;17.07;;;;;;;2.77;62.86;96342.41;8301187;28;20598;-77
2021/01/31 18:14:09;;;;;;;20.47;18.33;;;;;;;2.58;62.71;96321.84;8301421;28;20197;-78
2021/01/31 18:18:11;;;;;;;21.03;18.73;;;;;;;2.45;63.75;96335.09;8299121;28;20216;-78
2021/01/31 18:22:17;;;;;;;22.20;18.40;;;;;;;2.45;64.04;96329.97;8300079;28;20202;-78
2021/01/31 18:26:19;;;;;;;22.60;18.73;;;;;;;2.39;64.00;96326.84;8298989;28;20216;-78
2021/01/31 18:30:28;;;;;;;21.80;19.33;;;;;;;2.43;64.12;96318.16;8303345;28;20877;-78
2021/01/31 18:34:33;;;;;;;23.03;20.63;;;;;;;2.37;63.82;96310.75;8303405;28;20311;-78
2021/01/31 18:38:36;;;;;;;21.27;19.00;;;;;;;2.24;64.37;96302.69;8305131;28;20209;-77
2021/01/31 18:42:38;;;;;;;21.80;19.50;;;;;;;2.65;63.12;96301.09;8297703;28;20253;-78
2021/01/31 18:46:42;;;;;;;21.00;18.73;;;;;;;2.35;63.96;96290.34;8301063;28;20239;-78
2021/01/31 18:50:43;;;;;;;20.17;17.67;;;;;;;2.59;63.45;96291.13;8304324;28;20221;-78
2021/01/31 18:54:46;;;;;;;20.57;18.37;;;;;;;2.09;64.32;96281.94;8301489;28;20202;-77
2021/01/31 18:58:48;;;;;;;21.93;19.13;;;;;;;2.58;63.52;96276.69;8291398;28;20197;-77
2021/01/31 19:02:49;;;;;;;22.85;20.55;;;;;;;3.16;61.00;96283.72;8304557;28;20439;-78
2021/01/31 19:06:52;;;;;;;22.40;19.17;;;;;;;3.01;61.90;96286.88;8304324;28;20264;-78